createdAt,value
2019-02-23T00:00:34.532Z,3.7
2019-02-23T00:01:34.447Z,3.7
2019-02-23T00:02:34.346Z,3.6
2019-02-23T00:03:34.678Z,3.6
2019-02-23T00:04:34.578Z,3.6
2019-02-23T00:05:34.464Z,3.6
2019-02-23T00:23:31.025Z,4.4
2019-02-23T00:24:30.940Z,4.4
2019-02-23T00:25:30.896Z,4.4
2019-02-23T00:26:30.792Z,4.3
2019-02-23T00:27:30.685Z,4.3
2019-02-23T00:28:30.574Z,4.3
2019-02-23T00:29:30.491Z,4.2
2019-02-23T00:30:30.390Z,4.2
2019-02-23T00:31:30.301Z,4.2
2019-02-23T00:32:30.187Z,4.1
2019-02-23T00:33:30.520Z,4.1
2019-02-23T00:34:30.411Z,4.1
2019-02-23T00:35:30.333Z,4.1
2019-02-23T00:36:30.224Z,4.1
2019-02-23T00:37:30.180Z,4
2019-02-23T00:38:30.091Z,4
2019-02-23T00:39:29.992Z,4
2019-02-23T00:40:29.902Z,4
2019-02-23T00:41:29.780Z,3.9
2019-02-23T00:42:29.664Z,3.9
2019-02-23T00:43:30.015Z,3.8
2019-02-23T00:44:29.942Z,3.9
2019-02-23T00:45:29.880Z,3.8
2019-02-23T00:46:29.762Z,3.8
2019-02-23T00:47:29.638Z,3.8
2019-02-23T00:48:29.540Z,3.8
2019-02-23T00:49:37.167Z,3.8
2019-02-23T00:50:37.191Z,3.8
2019-02-23T00:51:37.091Z,3.8
2019-02-23T00:52:36.962Z,3.8
2019-02-23T00:53:37.350Z,3.8
2019-02-23T00:54:37.336Z,3.6
2019-02-23T00:55:37.260Z,3.7
2019-02-23T01:03:35.826Z,4.2
2019-02-23T01:04:35.717Z,4.2
2019-02-23T01:05:35.589Z,4.1
2019-02-23T01:06:35.517Z,4.1
2019-02-23T01:07:35.448Z,4.1
2019-02-23T01:08:35.341Z,4.1
2019-02-23T01:09:35.254Z,4
2019-02-23T01:10:35.152Z,4
2019-02-23T01:11:35.051Z,4
2019-02-23T01:12:34.965Z,3.9
2019-02-23T01:13:35.301Z,3.8
2019-02-23T01:14:35.197Z,3.9
2019-02-23T01:15:35.080Z,3.9
2019-02-23T01:16:34.977Z,3.8
2019-02-23T01:17:34.891Z,3.8
2019-02-23T01:18:34.814Z,3.7
2019-02-23T01:19:34.707Z,3.8
2019-02-23T01:20:34.667Z,3.8
2019-02-23T01:21:34.558Z,3.7
2019-02-23T01:22:34.473Z,3.7
2019-02-23T01:23:34.781Z,3.7
2019-02-23T01:24:34.664Z,3.7
2019-02-23T01:25:34.554Z,3.7
2019-02-23T01:33:33.042Z,4.2
2019-02-23T01:34:33.014Z,4.2
2019-02-23T01:35:32.892Z,4.2
2019-02-23T01:36:32.779Z,4.1
2019-02-23T01:37:32.689Z,4.1
2019-02-23T01:38:32.582Z,4.1
2019-02-23T01:39:32.463Z,4
2019-02-23T01:40:32.383Z,4
2019-02-23T01:41:32.280Z,4
2019-02-23T01:42:32.170Z,3.9
2019-02-23T01:43:32.571Z,3.9
2019-02-23T01:44:32.453Z,3.8
2019-02-23T01:45:43.189Z,3.8
2019-02-23T01:46:43.110Z,3.8
2019-02-23T01:47:43.025Z,3.8
2019-02-23T01:48:43.012Z,3.7
2019-02-23T01:49:42.912Z,3.7
2019-02-23T01:50:42.799Z,3.6
2019-02-23T01:51:42.691Z,3.6
2019-02-23T01:52:42.594Z,3.6
2019-02-23T01:53:42.901Z,3.6
2019-02-23T01:54:42.833Z,3.6
2019-02-23T01:55:42.725Z,3.6
2019-02-23T01:59:42.107Z,4
2019-02-23T02:03:41.603Z,4
2019-02-23T02:04:41.525Z,4
2019-02-23T02:05:41.427Z,3.9
2019-02-23T02:06:41.413Z,3.9
2019-02-23T02:07:41.305Z,3.9
2019-02-23T02:08:41.199Z,3.9
2019-02-23T02:09:41.093Z,3.9
2019-02-23T02:10:41.013Z,3.8
2019-02-23T02:11:40.915Z,3.8
2019-02-23T02:12:40.805Z,3.7
2019-02-23T02:13:41.131Z,3.8
2019-02-23T02:14:41.021Z,3.7
2019-02-23T02:15:40.959Z,3.7
2019-02-23T02:16:40.931Z,3.7
2019-02-23T02:17:40.840Z,3.7
2019-02-23T02:18:40.731Z,3.6
2019-02-23T02:19:40.633Z,3.6
2019-02-23T02:20:40.528Z,3.6
2019-02-23T02:21:40.483Z,3.6
2019-02-23T02:22:40.369Z,3.6
2019-02-23T02:23:40.722Z,3.5
2019-02-23T02:24:40.605Z,3.5
2019-02-23T02:25:40.501Z,3.4
2019-02-23T02:26:40.417Z,3.4
2019-02-23T02:27:40.309Z,3.4
2019-02-23T02:28:40.217Z,3.5
2019-02-23T02:29:40.143Z,3.4
2019-02-23T02:30:40.047Z,3.4
2019-02-23T02:31:39.955Z,3.3
2019-02-23T02:32:39.868Z,3.3
2019-02-23T02:33:40.323Z,3.3
2019-02-23T02:34:40.209Z,3.3
2019-02-23T02:35:40.134Z,3.3
2019-02-23T02:36:40.028Z,3.3
2019-02-23T02:37:39.969Z,3.3
2019-02-23T02:38:39.896Z,3.3
2019-02-23T02:39:39.819Z,3.2
2019-02-23T02:40:39.783Z,3.1
2019-02-23T02:41:39.695Z,3.1
2019-02-23T02:42:39.607Z,3.1
2019-02-23T02:43:40.101Z,3.1
2019-02-23T02:44:39.986Z,3
2019-02-23T02:45:39.910Z,3
2019-02-23T02:46:39.823Z,3
2019-02-23T02:47:39.851Z,3.1
2019-02-23T02:48:39.780Z,3.1
2019-02-23T02:49:39.689Z,3
2019-02-23T02:50:39.584Z,3.1
2019-02-23T02:51:39.481Z,2.9
2019-02-23T02:52:39.377Z,2.9
2019-02-23T02:53:39.763Z,2.9
2019-02-23T02:54:39.753Z,2.9
2019-02-23T02:55:39.655Z,2.9
2019-02-23T02:56:39.622Z,2.9
2019-02-23T02:57:39.518Z,2.9
2019-02-23T02:58:39.426Z,2.9
2019-02-23T02:59:39.348Z,3
2019-02-23T03:00:39.248Z,2.9
2019-02-23T03:01:39.151Z,2.9
2019-02-23T03:02:39.050Z,2.9
2019-02-23T03:03:39.370Z,2.9
2019-02-23T03:04:39.289Z,2.9
2019-02-23T03:33:35.362Z,3.3
2019-02-23T03:34:35.308Z,3.3
2019-02-23T03:35:35.204Z,3.3
2019-02-23T03:36:35.176Z,3.4
2019-02-23T03:37:35.112Z,3.4
2019-02-23T03:38:35.034Z,3.2
2019-02-23T03:39:34.903Z,3.2
2019-02-23T03:40:34.802Z,3.2
2019-02-23T03:41:34.722Z,3
2019-02-23T03:42:34.613Z,2.8
2019-02-23T03:43:35.099Z,2.8
2019-02-23T03:44:35.008Z,2.7
2019-02-23T03:53:33.395Z,3
2019-02-23T03:54:33.286Z,3
2019-02-23T03:55:33.179Z,3
2019-02-23T03:56:33.074Z,2.9
2019-02-23T03:57:33.052Z,2.8
2019-02-23T03:58:32.992Z,2.7
2019-02-23T03:59:32.876Z,2.7
2019-02-23T04:00:32.788Z,2.7
2019-02-23T04:01:32.738Z,2.7
2019-02-23T04:02:32.663Z,2.7
2019-02-23T04:03:33.034Z,2.7
2019-02-23T04:04:32.932Z,2.8
2019-02-23T04:13:31.268Z,3.1
2019-02-23T04:14:31.190Z,3.1
2019-02-23T04:15:31.099Z,3
2019-02-23T04:16:31.017Z,3
2019-02-23T04:17:30.947Z,3
2019-02-23T04:18:30.827Z,3
2019-02-23T04:19:30.730Z,3
2019-02-23T04:20:30.612Z,2.9
2019-02-23T04:21:30.524Z,2.9
2019-02-23T04:22:30.406Z,2.8
2019-02-23T04:23:30.777Z,2.8
2019-02-23T04:24:30.693Z,2.8
2019-02-23T04:25:30.602Z,2.8
2019-02-23T04:26:30.497Z,2.7
2019-02-23T04:27:30.412Z,2.6
2019-02-23T04:28:30.319Z,2.6
2019-02-23T04:29:30.254Z,2.7
2019-02-23T04:30:30.229Z,2.6
2019-02-23T04:31:30.113Z,2.6
2019-02-23T04:32:30.019Z,2.6
2019-02-23T04:33:30.337Z,2.6
2019-02-23T04:34:30.235Z,2.5
2019-02-23T04:43:28.467Z,3.2
2019-02-23T04:44:28.419Z,3.2
2019-02-23T04:45:28.329Z,3.2
2019-02-23T04:46:28.336Z,3.1
2019-02-23T04:47:28.247Z,3
2019-02-23T04:48:28.193Z,3
2019-02-23T04:49:28.100Z,3
2019-02-23T04:50:28.006Z,2.8
2019-02-23T04:51:27.911Z,2.8
2019-02-23T04:52:27.838Z,2.8
2019-02-23T04:53:28.185Z,2.8
2019-02-23T04:54:28.099Z,2.8
2019-02-23T04:55:27.978Z,2.8
2019-02-23T04:56:27.902Z,2.7
2019-02-23T04:57:27.821Z,2.6
2019-02-23T04:58:27.702Z,2.6
2019-02-23T04:59:27.603Z,2.5
2019-02-23T05:00:27.525Z,2.5
2019-02-23T05:01:27.427Z,2.6
2019-02-23T05:02:27.342Z,2.5
2019-02-23T05:03:27.717Z,2.4
2019-02-23T05:04:27.607Z,2.3
2019-02-23T05:05:27.526Z,2.4
2019-02-23T05:06:27.445Z,2.3
2019-02-23T05:07:27.381Z,2.4
2019-02-23T05:08:27.268Z,2.4
2019-02-23T05:09:27.211Z,2.4
2019-02-23T05:10:27.108Z,2.3
2019-02-23T05:11:27.009Z,2.3
2019-02-23T05:12:26.906Z,2.2
2019-02-23T05:13:27.263Z,2.3
2019-02-23T05:14:27.153Z,2.1
2019-02-23T05:15:27.038Z,2.1
2019-02-23T05:16:27.005Z,2.2
2019-02-23T05:17:26.923Z,2.2
2019-02-23T05:18:26.819Z,2.2
2019-02-23T05:19:26.737Z,2.2
2019-02-23T05:20:26.635Z,2.2
2019-02-23T05:21:27.593Z,2
2019-02-23T05:22:27.518Z,2.1
2019-02-23T05:23:27.854Z,2.1
2019-02-23T05:24:27.818Z,2
2019-02-23T05:25:27.709Z,2
2019-02-23T05:26:27.639Z,1.9
2019-02-23T05:27:27.548Z,1.8
2019-02-23T05:28:27.470Z,1.9
2019-02-23T05:29:27.347Z,1.8
2019-02-23T05:30:27.243Z,1.9
2019-02-23T05:31:27.159Z,1.9
2019-02-23T05:32:27.046Z,2
2019-02-23T05:33:27.442Z,1.9
2019-02-23T05:34:27.356Z,1.9
2019-02-23T05:35:27.267Z,2
2019-02-23T05:36:27.147Z,2
2019-02-23T05:37:27.027Z,2
2019-02-23T05:38:26.929Z,2
2019-02-23T05:39:26.847Z,1.9
2019-02-23T05:40:26.778Z,2
2019-02-23T05:41:26.693Z,1.9
2019-02-23T05:42:26.603Z,1.9
2019-02-23T05:43:31.560Z,1.9
2019-02-23T05:44:31.426Z,1.9
2019-02-23T05:53:39.538Z,2.4
2019-02-23T05:54:39.467Z,2.4
2019-02-23T05:55:39.366Z,2.4
2019-02-23T05:56:39.328Z,2.4
2019-02-23T05:57:39.218Z,2.4
2019-02-23T05:58:39.109Z,2.3
2019-02-23T05:59:38.995Z,2.3
2019-02-23T06:00:38.921Z,2.3
2019-02-23T06:01:38.823Z,2.3
2019-02-23T06:02:38.727Z,2.3
2019-02-23T06:03:39.149Z,2.3
2019-02-23T06:13:37.221Z,2.7
2019-02-23T06:14:37.113Z,2.6
2019-02-23T06:15:37.028Z,2.6
2019-02-23T06:16:36.969Z,2.6
2019-02-23T06:17:36.893Z,2.5
2019-02-23T06:18:36.788Z,2.4
2019-02-23T06:19:36.689Z,2.4
2019-02-23T06:20:36.697Z,2.3
2019-02-23T06:21:36.594Z,2.1
2019-02-23T06:22:36.509Z,2.1
2019-02-23T06:23:36.857Z,2.1
2019-02-23T06:24:36.797Z,2
2019-02-23T06:25:36.754Z,2
2019-02-23T06:26:36.675Z,2.1
2019-02-23T06:27:36.580Z,2.1
2019-02-23T06:28:36.482Z,2.1
2019-02-23T06:29:36.393Z,1.9
2019-02-23T06:30:36.317Z,1.9
2019-02-23T06:31:36.253Z,1.8
2019-02-23T06:32:36.152Z,1.9
2019-02-23T06:33:36.791Z,1.8
2019-02-23T06:34:36.695Z,1.8
2019-02-23T06:35:36.617Z,1.8
2019-02-23T06:36:36.518Z,1.8
2019-02-23T06:37:36.417Z,1.8
2019-02-23T06:38:36.341Z,1.8
2019-02-23T06:39:36.237Z,1.8
2019-02-23T06:40:36.134Z,1.9
2019-02-23T06:41:36.017Z,1.9
2019-02-23T06:42:35.911Z,1.8
2019-02-23T06:43:36.359Z,1.8
2019-02-23T06:44:36.270Z,1.6
2019-02-23T06:45:36.169Z,1.6
2019-02-23T06:46:36.049Z,1.6
2019-02-23T06:47:35.955Z,1.5
2019-02-23T06:48:35.870Z,1.5
2019-02-23T06:49:35.797Z,1.5
2019-02-23T06:50:35.703Z,1.6
2019-02-23T06:51:35.593Z,1.5
2019-02-23T06:52:35.488Z,1.5
2019-02-23T06:53:35.825Z,1.5
2019-02-23T06:54:35.734Z,1.4
2019-02-23T06:55:35.631Z,1.5
2019-02-23T06:56:35.528Z,1.5
2019-02-23T06:57:35.448Z,1.5
2019-02-23T06:58:35.366Z,1.5
2019-02-23T06:59:35.286Z,1.4
2019-02-23T07:00:35.189Z,1.5
2019-02-23T07:01:35.096Z,1.5
2019-02-23T07:02:34.980Z,1.5
2019-02-23T07:03:35.335Z,1.4
2019-02-23T07:04:35.234Z,1.5
2019-02-23T07:05:35.129Z,1.4
2019-02-23T07:06:35.068Z,1.4
2019-02-23T07:07:34.988Z,1.4
2019-02-23T07:08:34.896Z,1.3
2019-02-23T07:09:34.840Z,1.2
2019-02-23T07:10:34.743Z,1.2
2019-02-23T07:11:34.623Z,1.3
2019-02-23T07:12:34.525Z,1.3
2019-02-23T07:13:34.872Z,1.4
2019-02-23T07:14:34.766Z,1.3
2019-02-23T07:15:34.663Z,1.3
2019-02-23T07:16:34.556Z,1.4
2019-02-23T07:17:34.466Z,1.4
2019-02-23T07:18:34.359Z,1.4
2019-02-23T07:19:34.272Z,1.3
2019-02-23T07:20:45.108Z,1.3
2019-02-23T07:21:44.988Z,1.3
2019-02-23T07:22:44.886Z,1.2
2019-02-23T07:23:45.211Z,1.2
2019-02-23T07:43:41.006Z,2.2
2019-02-23T07:44:40.907Z,2.2
2019-02-23T07:45:40.827Z,2
2019-02-23T07:46:40.760Z,2
2019-02-23T07:47:40.638Z,2
2019-02-23T07:48:40.563Z,2
2019-02-23T07:49:40.448Z,1.7
2019-02-23T07:50:40.357Z,1.8
2019-02-23T07:51:40.285Z,1.8
2019-02-23T07:52:40.184Z,1.7
2019-02-23T07:53:40.524Z,1.8
2019-02-23T07:54:40.434Z,1.8
2019-02-23T07:55:45.256Z,1.8
2019-02-23T07:56:45.182Z,1.5
2019-02-23T07:57:45.128Z,1.5
2019-02-23T07:58:45.039Z,1.6
2019-02-23T07:59:44.921Z,1.6
2019-02-23T08:00:44.799Z,1.5
2019-02-23T08:01:44.703Z,1.6
2019-02-23T08:02:44.621Z,1.6
2019-02-23T08:03:44.940Z,1.5
2019-02-23T08:04:44.826Z,1.5
2019-02-23T08:05:44.747Z,1.5
2019-02-23T08:06:44.641Z,1.5
2019-02-23T08:07:44.534Z,1.5
2019-02-23T08:08:44.449Z,1.5
2019-02-23T08:09:44.353Z,1.6
2019-02-23T08:10:44.263Z,1.5
2019-02-23T08:11:44.195Z,1.5
2019-02-23T08:12:44.109Z,1.4
2019-02-23T08:13:44.464Z,1.5
2019-02-23T08:14:44.371Z,1.5
2019-02-23T08:15:44.265Z,1.6
2019-02-23T08:16:44.159Z,1.7
2019-02-23T08:17:44.067Z,1.7
2019-02-23T08:18:43.993Z,1.6
2019-02-23T08:19:43.895Z,1.6
2019-02-23T08:20:43.811Z,1.6
2019-02-23T08:21:43.724Z,1.7
2019-02-23T08:22:43.774Z,1.6
2019-02-23T08:23:44.091Z,1.7
2019-02-23T08:24:44.016Z,1.8
2019-02-23T08:25:43.905Z,1.7
2019-02-23T08:26:43.793Z,1.9
2019-02-23T08:27:43.717Z,1.8
2019-02-23T08:28:43.625Z,1.9
2019-02-23T08:29:43.517Z,1.9
2019-02-23T08:30:43.453Z,1.8
2019-02-23T08:31:43.353Z,1.8
2019-02-23T08:32:43.242Z,1.7
2019-02-23T08:33:43.560Z,1.6
2019-02-23T08:34:43.469Z,1.6
2019-02-23T08:35:43.378Z,1.7
2019-02-23T08:36:43.285Z,1.7
2019-02-23T08:37:43.261Z,1.8
2019-02-23T08:38:43.165Z,1.8
2019-02-23T08:39:43.053Z,1.8
2019-02-23T08:40:42.967Z,1.8
2019-02-23T08:41:43.939Z,1.9
2019-02-23T08:42:43.858Z,1.9
2019-02-23T08:43:44.227Z,1.7
2019-02-23T08:44:44.115Z,1.7
2019-02-23T08:45:44.031Z,1.8
2019-02-23T08:46:43.949Z,1.7
2019-02-23T08:47:43.936Z,1.7
2019-02-23T08:48:43.859Z,1.8
2019-02-23T08:49:43.773Z,1.8
2019-02-23T08:50:43.700Z,1.8
2019-02-23T08:51:43.579Z,1.8
2019-02-23T08:52:50.917Z,1.9
2019-02-23T08:53:51.223Z,1.9
2019-02-23T08:54:51.125Z,1.9
2019-02-23T09:13:48.241Z,2.7
2019-02-23T09:14:48.163Z,2.7
2019-02-23T09:15:48.047Z,2.6
2019-02-23T09:16:47.993Z,2.6
2019-02-23T09:17:47.904Z,2.3
2019-02-23T09:18:47.806Z,2.4
2019-02-23T09:19:47.693Z,2.5
2019-02-23T09:20:47.579Z,2.5
2019-02-23T09:21:47.469Z,2.3
2019-02-23T09:22:47.349Z,2.4
2019-02-23T09:23:47.688Z,2.2
2019-02-23T09:24:47.603Z,2.3
2019-02-23T09:25:47.523Z,2.3
2019-02-23T09:26:47.421Z,2.3
2019-02-23T09:27:47.324Z,2.3
2019-02-23T09:28:47.246Z,2.3
2019-02-23T09:29:47.191Z,2.2
2019-02-23T09:30:47.084Z,2
2019-02-23T09:31:46.971Z,1.9
2019-02-23T09:32:46.857Z,2
2019-02-23T09:33:47.173Z,1.8
2019-02-23T09:34:47.103Z,1.9
2019-02-23T09:35:46.990Z,1.9
2019-02-23T09:36:46.938Z,1.8
2019-02-23T09:37:46.850Z,1.6
2019-02-23T09:38:46.757Z,1.6
2019-02-23T09:39:46.673Z,1.6
2019-02-23T09:40:46.573Z,1.7
2019-02-23T09:41:46.465Z,1.6
2019-02-23T09:42:46.362Z,1.5
2019-02-23T09:43:47.903Z,1.6
2019-02-23T09:44:47.822Z,1.8
2019-02-23T09:45:47.701Z,1.8
2019-02-23T09:46:47.583Z,1.7
2019-02-23T09:47:47.489Z,1.6
2019-02-23T09:48:47.370Z,1.7
2019-02-23T09:49:47.268Z,1.7
2019-02-23T09:50:47.159Z,1.8
2019-02-23T09:51:47.042Z,1.8
2019-02-23T09:52:46.932Z,1.8
2019-02-23T09:53:47.242Z,1.9
2019-02-23T09:54:47.146Z,1.8
2019-02-23T09:55:47.074Z,1.8
2019-02-23T09:56:46.966Z,1.8
2019-02-23T09:57:46.864Z,1.8
2019-02-23T09:58:46.744Z,1.9
2019-02-23T09:59:46.629Z,1.9
2019-02-23T10:00:46.548Z,1.7
2019-02-23T10:01:46.466Z,1.8
2019-02-23T10:02:46.409Z,1.8
2019-02-23T10:03:46.766Z,1.6
2019-02-23T10:13:44.720Z,2.6
2019-02-23T10:14:44.611Z,2.6
2019-02-23T10:15:44.502Z,2.5
2019-02-23T10:16:44.447Z,2.4
2019-02-23T10:17:44.354Z,2.5
2019-02-23T10:18:44.322Z,2.5
2019-02-23T10:19:44.212Z,2.4
2019-02-23T10:20:44.124Z,2.5
2019-02-23T10:21:44.006Z,2.6
2019-02-23T10:22:43.928Z,2.5
2019-02-23T10:23:52.334Z,2.4
2019-02-23T10:24:52.226Z,2.4
2019-02-23T10:25:52.120Z,2.5
2019-02-23T10:26:52.006Z,2.4
2019-02-23T10:27:51.920Z,2.4
2019-02-23T10:28:51.801Z,2.4
2019-02-23T10:29:51.678Z,2.4
2019-02-23T10:30:51.567Z,2.4
2019-02-23T10:31:51.488Z,2.4
2019-02-23T10:32:51.409Z,2.4
2019-02-23T10:33:51.741Z,2.4
2019-02-23T10:34:51.634Z,2.4
2019-02-23T10:35:51.532Z,2.2
2019-02-23T10:36:51.416Z,2.3
2019-02-23T10:37:51.334Z,2.3
2019-02-23T10:38:51.219Z,2.4
2019-02-23T10:39:51.128Z,2.5
2019-02-23T10:40:51.034Z,2.5
2019-02-23T10:41:50.938Z,2.5
2019-02-23T10:42:50.841Z,2.4
2019-02-23T10:43:51.180Z,2.5
2019-02-23T10:44:51.057Z,2.6
2019-02-23T10:45:50.972Z,2.6
2019-02-23T10:46:50.863Z,2.6
2019-02-23T10:47:50.972Z,2.5
2019-02-23T10:48:50.894Z,2.4
2019-02-23T10:49:50.790Z,2.5
2019-02-23T10:50:50.703Z,2.6
2019-02-23T10:51:50.605Z,2.5
2019-02-23T10:52:50.492Z,2.4
2019-02-23T10:53:50.802Z,2.5
2019-02-23T10:54:50.696Z,2.5
2019-02-23T10:55:50.627Z,2.7
2019-02-23T11:03:49.092Z,3.3
2019-02-23T11:04:48.971Z,3.3
2019-02-23T11:05:48.875Z,3.2
2019-02-23T11:06:48.771Z,3.3
2019-02-23T11:07:48.675Z,3.4
2019-02-23T11:08:48.648Z,3.4
2019-02-23T11:09:48.541Z,3.3
2019-02-23T11:10:48.448Z,3.4
2019-02-23T11:11:49.069Z,3.4
2019-02-23T11:12:49.022Z,3.3
2019-02-23T11:13:49.356Z,3.3
2019-02-23T11:14:49.243Z,3.3
2019-02-23T11:15:49.153Z,3.3
2019-02-23T11:16:49.046Z,3.4
2019-02-23T11:17:48.922Z,3.5
2019-02-23T11:18:48.828Z,3.5
2019-02-23T11:19:48.737Z,3.5
2019-02-23T11:20:48.654Z,3.6
2019-02-23T11:21:48.555Z,3.5
2019-02-23T11:22:48.456Z,3.6
2019-02-23T11:23:48.772Z,3.6
2019-02-23T11:24:48.691Z,3.7
2019-02-23T11:25:48.610Z,3.7
2019-02-23T11:26:48.551Z,3.8
2019-02-23T11:27:48.445Z,3.8
2019-02-23T11:28:48.384Z,3.8
2019-02-23T11:29:48.295Z,3.6
2019-02-23T11:30:48.185Z,3.6
2019-02-23T11:31:48.206Z,3.5
2019-02-23T11:32:48.112Z,3.6
2019-02-23T11:33:48.506Z,3.6
2019-02-23T11:34:48.401Z,3.7
2019-02-23T11:35:48.332Z,3.8
2019-02-23T11:36:48.248Z,3.8
2019-02-23T11:37:48.176Z,3.9
2019-02-23T11:38:48.081Z,3.8
2019-02-23T11:39:47.979Z,3.8
2019-02-23T11:40:47.888Z,3.9
2019-02-23T11:41:47.801Z,3.8
2019-02-23T11:42:47.767Z,3.8
2019-02-23T11:43:48.127Z,3.8
2019-02-23T11:44:48.023Z,3.8
2019-02-23T11:45:47.904Z,3.7
2019-02-23T11:47:01.039Z,3.7
2019-02-23T11:48:00.949Z,3.8
2019-02-23T11:49:00.841Z,3.9
2019-02-23T11:50:00.971Z,3.9
2019-02-23T11:51:00.863Z,3.9
2019-02-23T11:52:00.753Z,3.9
2019-02-23T11:53:00.668Z,3.9
2019-02-23T11:54:01.027Z,3.9
2019-02-23T11:55:00.992Z,3.8
2019-02-23T11:56:00.970Z,3.9
2019-02-23T11:57:00.878Z,3.9
2019-02-23T11:58:00.792Z,3.9
2019-02-23T11:59:00.687Z,3.9
2019-02-23T12:00:00.691Z,4
2019-02-23T12:01:00.569Z,4
2019-02-23T12:02:00.456Z,4
2019-02-23T12:03:00.353Z,4
2019-02-23T12:04:00.683Z,4.1
2019-02-23T12:05:00.714Z,4.1
2019-02-23T12:06:00.633Z,4
2019-02-23T12:07:00.528Z,4
2019-02-23T12:08:00.440Z,4
2019-02-23T12:09:00.325Z,4
2019-02-23T12:10:00.340Z,3.9
2019-02-23T12:11:00.237Z,3.9
2019-02-23T12:12:00.172Z,3.8
2019-02-23T12:13:00.105Z,3.8
2019-02-23T12:14:00.493Z,3.8
2019-02-23T12:15:00.489Z,3.9
2019-02-23T12:16:00.407Z,3.9
2019-02-23T12:17:00.286Z,3.8
2019-02-23T12:18:00.231Z,3.8
2019-02-23T12:19:00.137Z,3.8
2019-02-23T12:20:00.033Z,3.8
2019-02-23T12:21:00.194Z,3.8
2019-02-23T12:22:00.095Z,3.8
2019-02-23T12:23:00.000Z,3.8
2019-02-23T12:24:06.972Z,3.8
2019-02-23T12:25:06.865Z,3.8
2019-02-23T12:26:06.737Z,3.8
2019-02-23T12:27:06.633Z,3.7
2019-02-23T12:28:06.543Z,3.8
2019-02-23T12:29:06.459Z,3.8
2019-02-23T12:30:06.358Z,3.8
2019-02-23T12:31:06.258Z,3.8
2019-02-23T12:32:06.154Z,3.8
2019-02-23T12:33:06.114Z,3.8
2019-02-23T12:34:06.472Z,3.9
2019-02-23T12:35:06.383Z,3.9
2019-02-23T12:36:06.339Z,3.8
2019-02-23T12:37:06.227Z,3.8
2019-02-23T12:38:06.125Z,3.8
2019-02-23T12:39:06.030Z,3.8
2019-02-23T12:40:05.944Z,3.8
2019-02-23T12:41:05.838Z,3.8
2019-02-23T12:42:05.735Z,3.8
2019-02-23T12:43:05.623Z,3.7
2019-02-23T12:44:05.938Z,3.8
2019-02-23T12:45:05.830Z,3.8
2019-02-23T12:46:05.753Z,3.8
2019-02-23T12:47:05.644Z,3.9
2019-02-23T12:48:05.537Z,3.8
2019-02-23T12:49:05.456Z,3.9
2019-02-23T12:50:05.349Z,3.9
2019-02-23T12:51:05.268Z,3.9
2019-02-23T12:52:05.161Z,3.9
2019-02-23T12:53:05.039Z,3.9
2019-02-23T12:54:05.384Z,3.8
2019-02-23T12:55:16.889Z,3.7
2019-02-23T12:56:16.802Z,3.8
2019-02-23T12:57:16.704Z,3.7
2019-02-23T12:58:16.594Z,3.8
2019-02-23T12:59:16.488Z,3.7
2019-02-23T13:00:16.375Z,3.6
2019-02-23T13:01:16.267Z,3.7
2019-02-23T13:02:16.240Z,3.7
2019-02-23T13:03:16.128Z,3.7
2019-02-23T13:04:16.487Z,3.6
2019-02-23T13:05:16.375Z,3.5
2019-02-23T13:06:16.271Z,3.6
2019-02-23T13:07:16.177Z,3.6
2019-02-23T13:08:16.067Z,3.7
2019-02-23T13:09:15.969Z,3.6
2019-02-23T13:10:15.890Z,3.6
2019-02-23T13:11:15.796Z,3.6
2019-02-23T13:12:15.692Z,3.6
2019-02-23T13:13:15.569Z,3.7
2019-02-23T13:14:15.873Z,3.7
2019-02-23T13:15:15.759Z,3.6
2019-02-23T13:16:15.664Z,3.8
2019-02-23T13:34:14.614Z,4.7
2019-02-23T13:35:14.505Z,4.7
2019-02-23T13:36:14.386Z,4.5
2019-02-23T13:37:14.297Z,4.5
2019-02-23T13:38:14.195Z,4.3
2019-02-23T13:39:14.115Z,4.3
2019-02-23T13:40:14.006Z,4.4
2019-02-23T13:41:13.926Z,4.2
2019-02-23T13:42:13.812Z,4.2
2019-02-23T13:43:13.715Z,4.2
2019-02-23T13:44:14.088Z,4.2
2019-02-23T13:45:13.986Z,4.2
2019-02-23T13:46:13.890Z,4.3
2019-02-23T13:47:13.782Z,4.2
2019-02-23T13:48:13.675Z,4.2
2019-02-23T13:49:13.578Z,4.1
2019-02-23T13:50:13.479Z,4.1
2019-02-23T13:51:13.384Z,3.9
2019-02-23T13:52:13.291Z,3.9
2019-02-23T13:53:13.248Z,4
2019-02-23T13:54:13.552Z,3.9
2019-02-23T13:55:13.466Z,4.1
2019-02-23T13:56:15.268Z,4.2
2019-02-23T13:57:15.170Z,4.3
2019-02-23T14:04:13.899Z,4.6
2019-02-23T14:05:13.790Z,4.6
2019-02-23T14:06:13.704Z,4.6
2019-02-23T14:07:13.611Z,4.4
2019-02-23T14:08:13.498Z,4.3
2019-02-23T14:09:13.411Z,4.4
2019-02-23T14:10:13.298Z,4.3
2019-02-23T14:11:13.178Z,4.3
2019-02-23T14:12:13.088Z,4.3
2019-02-23T14:13:12.991Z,4.3
2019-02-23T14:14:13.332Z,4.2
2019-02-23T14:15:13.222Z,4.2
2019-02-23T14:16:13.108Z,4
2019-02-23T14:17:13.034Z,4.1
2019-02-23T14:18:13.027Z,4.1
2019-02-23T14:19:12.916Z,3.9
2019-02-23T14:20:12.815Z,4
2019-02-23T14:21:12.714Z,4
2019-02-23T14:22:12.626Z,4
2019-02-23T14:23:12.545Z,4
2019-02-23T14:24:12.895Z,4
2019-02-23T14:25:12.781Z,4
2019-02-23T14:26:12.700Z,3.9
2019-02-23T14:27:12.602Z,3.8
2019-02-23T14:28:12.547Z,3.9
2019-02-23T14:29:12.436Z,3.8
2019-02-23T14:30:12.336Z,3.9
2019-02-23T14:31:12.241Z,3.9
2019-02-23T14:32:12.106Z,3.8
2019-02-23T14:33:12.002Z,3.9
2019-02-23T14:34:12.354Z,3.9
2019-02-23T14:35:12.246Z,3.9
2019-02-23T14:36:12.123Z,3.9
2019-02-23T14:37:12.031Z,3.9
2019-02-23T14:38:11.939Z,3.9
2019-02-23T14:39:13.725Z,3.9
2019-02-23T14:40:13.757Z,3.9
2019-02-23T14:41:13.659Z,3.9
2019-02-23T14:42:13.829Z,3.9
2019-02-23T14:43:13.845Z,3.8
2019-02-23T14:44:14.412Z,3.8
2019-02-23T14:45:14.310Z,3.9
2019-02-23T14:46:14.232Z,3.9
2019-02-23T14:47:14.191Z,3.8
2019-02-23T14:48:14.225Z,3.8
2019-02-23T14:49:16.862Z,3.8
2019-02-23T14:50:16.914Z,3.9
2019-02-23T14:51:16.868Z,3.9
2019-02-23T14:52:16.832Z,3.8
2019-02-23T14:53:16.774Z,3.8
2019-02-23T14:54:17.337Z,3.7
2019-02-23T14:55:17.310Z,3.6
2019-02-23T14:56:17.253Z,3.7
2019-02-23T15:04:16.041Z,4.4
2019-02-23T15:05:15.951Z,4.4
2019-02-23T15:06:15.859Z,4.4
2019-02-23T15:07:15.771Z,4.4
2019-02-23T15:08:15.689Z,4.4
2019-02-23T15:09:17.879Z,4.4
2019-02-23T15:10:17.853Z,4.3
2019-02-23T15:11:17.753Z,4.3
2019-02-23T15:12:17.713Z,4.1
2019-02-23T15:13:17.605Z,4.1
2019-02-23T15:14:18.220Z,4
2019-02-23T15:15:18.175Z,4.4
2019-02-23T15:16:18.199Z,3.9
2019-02-23T15:34:38.081Z,4.5
2019-02-23T15:35:37.980Z,4.5
2019-02-23T15:36:37.881Z,4.4
2019-02-23T15:37:37.825Z,4.4
2019-02-23T15:38:37.727Z,4.2
2019-02-23T15:39:37.668Z,4.2
2019-02-23T15:40:37.781Z,4.2
2019-02-23T15:41:37.877Z,4.2
2019-02-23T15:42:37.972Z,3.9
2019-02-23T15:43:38.094Z,3.9
2019-02-23T15:44:38.858Z,3.7
2019-02-23T15:45:39.044Z,3.7
2019-02-23T15:46:39.139Z,3.7
2019-02-23T15:47:39.493Z,3.6
2019-02-23T15:48:39.574Z,3.6
2019-02-23T15:49:39.716Z,3.7
2019-02-23T15:50:39.854Z,3.6
2019-02-23T15:51:40.072Z,3.5
2019-02-23T15:52:40.385Z,3.4
2019-02-23T15:53:40.956Z,3.4
2019-02-23T15:54:41.570Z,3.4
2019-02-23T15:55:41.483Z,3.4
2019-02-23T15:56:41.489Z,3.4
2019-02-23T15:57:41.431Z,3.3
2019-02-23T15:58:41.333Z,3.1
2019-02-23T15:59:44.788Z,3.3
2019-02-23T16:00:44.997Z,3.3
2019-02-23T16:01:44.968Z,3.3
2019-02-23T16:02:44.893Z,3.2
2019-02-23T16:03:44.783Z,3.2
2019-02-23T16:04:45.156Z,3.1
2019-02-23T16:05:45.043Z,3
2019-02-23T16:06:44.999Z,2.9
2019-02-23T16:07:44.925Z,3.1
2019-02-23T16:08:44.823Z,3.1
2019-02-23T16:09:44.758Z,3.1
2019-02-23T16:10:44.802Z,3
2019-02-23T16:11:46.139Z,2.9
2019-02-23T16:12:46.029Z,2.9
2019-02-23T16:13:45.953Z,3
2019-02-23T16:14:46.453Z,2.9
2019-02-23T16:15:46.469Z,2.8
2019-02-23T16:16:48.120Z,2.7
2019-02-23T16:17:48.117Z,2.7
2019-02-23T16:18:48.045Z,2.8
2019-02-23T16:19:47.929Z,2.7
2019-02-23T16:20:47.893Z,2.6
2019-02-23T16:21:47.807Z,2.7
2019-02-23T16:22:47.810Z,2.7
2019-02-23T16:23:47.762Z,2.7
2019-02-23T16:24:48.114Z,2.7
2019-02-23T16:25:48.021Z,2.7
2019-02-23T16:26:47.923Z,2.7
2019-02-23T16:27:47.831Z,2.7
2019-02-23T16:28:47.765Z,2.7
2019-02-23T16:29:47.692Z,2.6
2019-02-23T16:30:47.587Z,2.6
2019-02-23T16:31:47.493Z,2.5
2019-02-23T16:32:47.671Z,2.5
2019-02-23T16:33:47.561Z,2.5
2019-02-23T16:34:48.030Z,2.5
2019-02-23T16:35:48.254Z,2.5
2019-02-23T16:36:48.156Z,2.5
2019-02-23T16:37:48.121Z,2.5
2019-02-23T16:38:48.033Z,2.5
2019-02-23T16:39:47.971Z,2.4
2019-02-23T16:40:50.893Z,2.4
2019-02-23T16:41:50.807Z,2.4
2019-02-23T16:42:50.736Z,2.4
2019-02-23T16:43:50.635Z,2.3
2019-02-23T16:44:51.015Z,2.3
2019-02-23T16:45:50.918Z,2.3
2019-02-23T16:46:50.860Z,2.3
2019-02-23T16:47:50.794Z,2.2
2019-02-23T16:48:50.848Z,2.3
2019-02-23T16:49:50.790Z,2.3
2019-02-23T16:50:50.722Z,2.2
2019-02-23T16:51:50.600Z,2.2
2019-02-23T16:52:50.494Z,2.2
2019-02-23T16:53:50.407Z,2.1
2019-02-23T16:54:50.876Z,2
2019-02-23T16:55:51.881Z,2
2019-02-23T17:04:54.588Z,2.5
2019-02-23T17:05:54.564Z,2.5
2019-02-23T17:06:54.456Z,2.4
2019-02-23T17:07:54.431Z,2.3
2019-02-23T17:08:54.337Z,2.4
2019-02-23T17:09:54.248Z,2.3
2019-02-23T17:10:54.153Z,2.3
2019-02-23T17:11:54.066Z,2.2
2019-02-23T17:12:54.044Z,2.2
2019-02-23T17:13:53.945Z,2.1
2019-02-23T17:14:54.368Z,2.1
2019-02-23T17:15:54.393Z,2
2019-02-23T17:16:54.382Z,1.9
2019-02-23T17:17:55.338Z,2
2019-02-23T17:18:55.232Z,2
2019-02-23T17:19:55.219Z,1.9
2019-02-23T17:20:55.145Z,1.9
2019-02-23T17:21:55.060Z,1.9
2019-02-23T17:22:55.003Z,1.8
2019-02-23T17:23:54.909Z,1.7
2019-02-23T17:24:55.244Z,1.7
2019-02-23T17:26:05.127Z,1.7
2019-02-23T17:27:05.080Z,1.7